Latest Weather Observations for Avalon

IDV60901

Issued at 8:41 pm EST Thursday 24 August 2017 (issued every 10 minutes, with the page automatically refreshed every 10 minutes)

About weather observations | Map of Melbourne area stations | Latest observations for Melbourne area | Other Formats
Station Details ID: 087113 Name: AVALON AIRPORT Lat: -38.03 Lon: 144.48 Height: 10.6 m
Data from the previous 72 hours. | See also: Recent months at Avalon
Date/Time
EST
Temp
°C
App
Temp
°C
Dew
Point
°C
Rel
Hum
%
Delta-T
°C
Wind Press
QNH
hPa
Press
MSL
hPa
Rain since
9am
mm
Dir  Spd
km/h
Gust
km/h
Spd
kts
Gust
kts
24/08:30pm 7.4 4.1 6.5 94 0.4 WNW 13 15 7 8 1026.0 1026.0 3.2
24/08:00pm 8.2 5.4 7.0 92 0.6 WNW 11 13 6 7 1025.7 1025.7 3.2
24/07:30pm 9.2 7.3 7.5 89 0.8 WNW 7 9 4 5 1025.5 1025.5 3.2
24/07:00pm 9.9 7.5 7.0 82 1.4 WSW 9 13 5 7 1025.4 1025.4 3.2
24/06:30pm 9.8 7.7 8.4 91 0.7 WSW 9 11 5 6 1025.1 1025.1 3.0
24/06:00pm 9.6 6.8 8.5 93 0.5 SSW 13 17 7 9 1024.7 1024.7 3.0
24/05:30pm 9.9 6.6 8.2 89 0.8 SSW 15 20 8 11 1024.2 1024.2 3.0
24/05:00pm 10.6 7.9 8.9 89 0.8 SSW 13 19 7 10 1024.0 1024.0 3.0
24/04:30pm 10.2 8.4 9.6 96 0.3 SSW 9 11 5 6 1023.9 1023.9 3.0
24/04:00pm 10.4 6.4 9.0 91 0.7 WSW 20 30 11 16 1023.7 1023.7 2.4
24/03:30pm 11.6 9.0 9.2 85 1.2 SSW 13 17 7 9 1023.2 1023.2 2.2
24/03:00pm 11.5 8.4 10.2 92 0.7 SSW 17 20 9 11 1023.1 1023.1 2.2
24/02:30pm 11.8 8.4 9.0 83 1.4 S 17 20 9 11 1022.8 1022.8 2.2
24/02:00pm 10.3 7.6 9.1 92 0.6 SSW 13 22 7 12 1022.7 1022.7 2.0
24/01:30pm 12.6 9.0 6.9 68 2.7 WSW 15 28 8 15 1022.5 1022.5 1.0
24/01:00pm 11.8 9.5 10.5 92 0.7 SSW 13 17 7 9 1022.7 1022.7 1.0
24/12:53pm 10.9 8.4 9.8 93 0.6 SW 13 15 7 8 1022.7 1022.7 1.0
24/12:40pm 10.4 6.2 8.2 86 1.1 SW 20 32 11 17 1022.9 1022.9 0.8
24/12:30pm 12.4 8.9 7.1 70 2.6 WSW 15 22 8 12 1022.9 1022.9 0.0
24/12:00pm 12.5 8.6 7.0 69 2.6 WSW 17 26 9 14 1023.0 1023.0 0.0
24/11:30am 12.1 7.6 8.6 79 1.7 W 22 28 12 15 1023.4 1023.4 0.0
24/11:00am 11.4 6.4 7.9 79 1.7 W 24 33 13 18 1023.6 1023.6 0.0
24/10:30am 10.9 5.9 8.1 83 1.4 W 24 32 13 17 1023.4 1023.4 0.0
24/10:00am 9.9 3.7 8.0 88 0.9 W 30 41 16 22 1023.3 1023.3 0.0
24/09:30am 9.1 4.0 7.7 91 0.7 W 24 35 13 19 1023.2 1023.2 0.0
24/09:00am 8.2 2.6 7.1 93 0.5 W 26 33 14 18 1023.1 1023.1 5.2
24/08:30am 7.4 2.0 6.5 94 0.4 WNW 24 30 13 16 1023.0 1023.0 5.2
24/08:00am 6.5 2.0 6.2 98 0.1 WNW 19 24 10 13 1022.9 1022.9 5.2
24/07:30am 5.9 1.7 5.8 99 0.0 WNW 17 20 9 11 1022.4 1022.4 5.2
24/07:00am 5.3 1.4 5.2 99 0.0 WNW 15 17 8 9 1022.1 1022.1 5.2
24/06:30am 5.3 0.9 5.0 98 0.1 WNW 17 20 9 11 1021.7 1021.7 5.2
24/06:00am 5.3 1.7 5.2 99 0.0 WNW 13 17 7 9 1021.6 1021.6 5.2
24/05:30am 5.0 1.0 4.9 99 0.0 WNW 15 19 8 10 1021.4 1021.4 5.0
24/05:00am 4.1 0.3 4.0 99 0.0 WNW 13 15 7 8 1021.2 1021.2 5.0
24/04:30am 3.9 -0.3 3.8 99 0.0 WNW 15 17 8 9 1021.0 1021.0 5.0
24/04:00am 4.4 0.3 4.3 99 0.0 WNW 15 20 8 11 1020.9 1020.9 5.0
24/03:30am 4.5 0.0 4.4 99 0.0 WNW 17 19 9 10 1020.9 1020.9 5.0
24/03:00am 3.4 -0.5 3.3 99 0.0 WNW 13 15 7 8 1020.9 1020.9 5.0
24/02:30am 3.6 -0.3 3.5 99 0.0 WNW 13 17 7 9 1021.1 1021.1 5.0
24/02:00am 4.5 0.8 4.4 99 0.0 WNW 13 15 7 8 1021.1 1021.1 5.0
24/01:30am 5.6 1.7 5.5 99 0.0 NW 15 17 8 9 1021.2 1021.2 5.0
24/01:00am 6.2 1.7 6.1 99 0.0 WNW 19 22 10 12 1021.1 1021.1 5.0
24/12:30am 6.0 1.8 5.9 99 0.0 WNW 17 22 9 12 1021.1 1021.1 5.0
24/12:00am 6.4 1.8 6.3 99 0.0 WNW 20 22 11 12 1021.0 1021.0 5.0
 
Date/Time
EST
Temp
°C
App
Temp
°C
Dew
Point
°C
Rel
Hum
%
Delta-T
°C
Wind Press
QNH
hPa
Press
MSL
hPa
Rain since
9am
mm
Dir  Spd
km/h
Gust
km/h
Spd
kts
Gust
kts
23/11:30pm 6.9 2.6 6.9 100 0.0 WNW 19 22 10 12 1020.9 1020.9 5.0
23/11:00pm 6.6 3.0 6.6 100 0.0 WNW 15 17 8 9 1020.8 1020.8 5.0
23/10:30pm 6.1 2.3 6.0 99 0.0 WNW 15 19 8 10 1020.7 1020.7 5.0
23/10:00pm 5.9 1.7 5.8 99 0.0 WNW 17 20 9 11 1020.5 1020.5 5.0
23/09:30pm 6.7 2.7 6.6 99 0.0 WNW 17 20 9 11 1020.4 1020.4 5.0
23/09:00pm 7.2 2.9 7.1 99 0.0 WNW 19 22 10 12 1020.2 1020.2 5.0
23/08:30pm 6.9 3.3 6.8 99 0.0 WNW 15 19 8 10 1019.8 1019.8 5.0
23/08:00pm 6.7 3.8 6.6 99 0.0 WNW 11 13 6 7 1019.5 1019.5 5.0
23/07:30pm 7.1 3.6 7.0 99 0.0 WNW 15 19 8 10 1019.4 1019.4 5.0
23/07:00pm 7.5 4.8 7.4 99 0.0 WNW 11 15 6 8 1019.1 1019.1 5.0
23/06:30pm 8.0 5.4 7.9 99 0.0 NNW 11 13 6 7 1018.6 1018.6 5.0
23/06:00pm 8.6 5.8 8.5 99 0.0 NW 13 17 7 9 1018.2 1018.2 5.0
23/05:30pm 8.7 5.5 8.6 99 0.0 NNW 15 19 8 10 1017.9 1017.9 4.8
23/05:00pm 8.9 5.0 8.8 99 0.0 WNW 19 22 10 12 1018.0 1018.0 4.6
23/04:30pm 9.1 5.6 8.8 98 0.1 W 17 24 9 13 1017.8 1017.8 3.8
23/04:00pm 9.4 6.4 9.3 99 0.0 W 15 20 8 11 1017.3 1017.3 2.8
23/03:30pm 9.3 3.8 9.2 99 0.0 WSW 28 33 15 18 1016.9 1016.9 2.6
23/03:17pm 9.5 2.7 9.2 98 0.1 WSW 35 46 19 25 1016.9 1016.9 1.6
23/03:05pm 9.8 0.7 8.6 92 0.6 WSW 46 61 25 33 1016.0 1016.0 1.2
23/03:04pm 10.0 1.3 8.6 91 0.7 WSW 44 61 24 33 1015.9 1015.9 1.0
23/03:00pm 10.8 3.5 8.6 86 1.1 WNW 37 61 20 33 1015.7 1015.7 0.8
23/02:56pm 12.5 6.3 10.2 86 1.2 WNW 33 52 18 28 1015.3 1015.3 0.8
23/02:40pm 14.6 9.4 8.8 68 2.9 NW 26 43 14 23 1014.8 1014.8 0.4
23/02:30pm 14.4 12.1 11.6 83 1.5 WNW 15 24 8 13 1014.9 1014.9 0.4
23/02:00pm 12.6 8.0 11.2 91 0.7 WSW 26 35 14 19 1015.2 1015.2 0.2
23/01:30pm 15.9 10.9 8.2 60 3.9 NW 24 32 13 17 1015.2 1015.2 0.0
23/01:00pm 15.8 10.7 7.6 58 4.1 NW 24 32 13 17 1015.4 1015.4 0.0
23/12:30pm 16.5 10.6 7.7 56 4.4 WNW 28 37 15 20 1016.0 1016.0 0.0
23/12:00pm 17.2 11.1 8.1 55 4.6 WNW 30 41 16 22 1016.5 1016.5 0.0
23/11:30am 15.8 9.0 7.1 56 4.3 WNW 32 41 17 22 1017.0 1017.0 0.0
23/11:00am 16.4 10.1 7.6 56 4.4 NW 30 37 16 20 1017.1 1017.1 0.0
23/10:30am 15.4 10.1 8.4 63 3.5 NW 26 33 14 18 1017.2 1017.2 0.0
23/10:00am 14.5 9.4 7.8 64 3.3 NW 24 33 13 18 1017.4 1017.4 0.0
23/09:30am 13.8 10.2 8.4 70 2.7 NW 17 20 9 11 1017.6 1017.6 0.0
23/09:00am 12.8 8.5 7.7 71 2.5 NW 20 26 11 14 1017.5 1017.5 0.0
23/08:30am 12.3 8.6 7.8 74 2.2 NW 17 24 9 13 1017.5 1017.5 0.0
23/08:00am 11.0 8.0 7.7 80 1.6 N 13 17 7 9 1017.4 1017.4 0.0
23/07:30am 9.6 6.2 7.5 87 1.0 NNW 15 17 8 9 1017.3 1017.3 0.0
23/07:00am 9.5 5.2 7.1 85 1.1 NW 19 22 10 12 1017.3 1017.3 0.0
23/06:30am 9.3 5.1 7.4 88 0.9 NW 19 26 10 14 1017.3 1017.3 0.0
23/06:00am 7.3 4.4 6.7 96 0.3 NNE 11 13 6 7 1017.5 1017.5 0.0
23/05:30am 6.9 4.5 5.4 90 0.7 N 7 7 4 4 1017.6 1017.6 0.0
23/05:00am 7.9 4.6 6.2 89 0.8 NNW 13 13 7 7 1017.4 1017.4 0.0
23/04:30am 9.8 5.3 7.1 83 1.3 NNW 20 24 11 13 1017.3 1017.3 0.0
23/04:00am 9.5 5.2 6.9 84 1.2 NNW 19 22 10 12 1017.6 1017.6 0.0
23/03:30am 9.1 4.7 6.5 84 1.2 NNW 19 22 10 12 1017.7 1017.7 0.0
23/03:00am 9.1 4.5 6.5 84 1.2 NNW 20 22 11 12 1017.9 1017.9 0.0
23/02:30am 10.0 5.0 6.5 79 1.6 NW 22 26 12 14 1018.1 1018.1 0.0
23/02:00am 9.2 5.1 6.3 82 1.3 NW 17 20 9 11 1018.2 1018.2 0.0
23/01:30am 10.1 5.5 6.6 79 1.6 NW 20 28 11 15 1018.4 1018.4 0.0
23/01:00am 9.0 4.5 5.9 81 1.4 NW 19 24 10 13 1018.4 1018.4 0.0
23/12:30am 8.1 5.7 5.4 83 1.2 N 7 11 4 6 1018.6 1018.6 0.0
23/12:00am 7.7 4.9 5.3 85 1.1 NNE 9 15 5 8 1018.5 1018.5 0.0
 
Date/Time
EST
Temp
°C
App
Temp
°C
Dew
Point
°C
Rel
Hum
%
Delta-T
°C
Wind Press
QNH
hPa
Press
MSL
hPa
Rain since
9am
mm
Dir  Spd
km/h
Gust
km/h
Spd
kts
Gust
kts
22/11:30pm 9.2 5.9 6.3 82 1.3 NW 13 15 7 8 1018.8 1018.8 0.0
22/11:00pm 8.4 5.4 5.9 84 1.1 NNW 11 13 6 7 1018.8 1018.8 0.0
22/10:30pm 8.6 4.5 6.4 86 1.0 NW 17 19 9 10 1019.0 1019.0 0.0
22/10:00pm 8.7 5.5 6.8 88 0.9 NW 13 17 7 9 1019.3 1019.3 0.0
22/09:30pm 9.5 6.4 7.4 87 1.0 NW 13 17 7 9 1019.3 1019.3 0.0
22/09:00pm 10.0 7.4 7.9 87 1.0 NW 11 13 6 7 1019.4 1019.4 0.0
22/08:30pm 9.6 6.7 8.0 90 0.8 NNW 13 15 7 8 1019.2 1019.2 0.0
22/08:00pm 9.9 7.3 7.8 87 1.0 NW 11 11 6 6 1019.0 1019.0 0.0
22/07:30pm 10.3 7.4 8.1 86 1.1 NW 13 13 7 7 1018.9 1018.9 0.0
22/07:00pm 11.3 8.8 8.3 82 1.5 NNW 11 13 6 7 1018.6 1018.6 0.0
22/06:30pm 11.9 9.9 8.7 81 1.6 WNW 9 13 5 7 1018.6 1018.6 0.0
22/06:00pm 12.9 10.5 8.8 76 2.0 W 11 15 6 8 1018.4 1018.4 0.0
22/05:30pm 13.6 9.7 8.7 72 2.5 W 19 24 10 13 1018.4 1018.4 0.0
22/05:00pm 14.8 11.7 8.7 67 3.1 W 15 22 8 12 1018.0 1018.0 0.0
22/04:30pm 15.1 12.2 8.3 64 3.4 NW 13 17 7 9 1017.8 1017.8 0.0
22/04:00pm 15.2 11.2 8.2 63 3.5 WNW 19 24 10 13 1017.7 1017.7 0.0
22/03:30pm 14.9 10.6 7.9 63 3.5 WNW 20 28 11 15 1017.6 1017.6 0.0
22/03:00pm 16.4 11.3 9.1 62 3.8 WNW 26 30 14 16 1017.5 1017.5 0.0
22/02:30pm 15.8 9.7 8.1 60 3.9 WNW 30 35 16 19 1017.4 1017.4 0.0
22/02:00pm 16.4 10.8 8.6 60 4.0 WNW 28 37 15 20 1017.6 1017.6 0.0
22/01:30pm 15.9 9.7 7.7 58 4.1 WNW 30 35 16 19 1017.8 1017.8 0.0
22/01:00pm 16.1 10.0 8.3 60 3.9 W 30 39 16 21 1018.0 1018.0 0.0
22/12:30pm 15.0 8.7 7.5 61 3.7 WNW 30 39 16 21 1018.3 1018.3 0.0
22/12:00pm 14.7 10.4 8.0 64 3.3 W 20 28 11 15 1018.7 1018.7 0.0
22/11:30am 15.3 10.3 8.1 62 3.6 W 24 32 13 17 1019.0 1019.0 0.0
22/11:00am 14.4 9.9 7.0 61 3.6 W 20 28 11 15 1019.0 1019.0 0.0
22/10:30am 13.7 11.5 7.9 68 2.9 WNW 9 19 5 10 1019.0 1019.0 0.0
22/10:00am 11.4 10.9 7.9 79 1.7 CALM 0 0 0 0 1019.1 1019.1 0.0
22/09:30am 11.1 10.3 8.1 82 1.5 NW 2 6 1 3 1019.0 1019.0 0.0
22/09:00am 9.2 9.0 9.1 99 0.0 CALM 0 0 0 0 1018.8 1018.8 0.2
22/08:30am 6.7 5.9 6.7 100 0.0 CALM 0 0 0 0 1018.8 1018.8 0.2
22/08:00am 4.9 3.8 4.9 100 0.0 CALM 0 0 0 0 1018.6 1018.6 0.2
22/07:30am 2.9 1.0 2.9 100 0.0 ESE 2 7 1 4 1018.3 1018.3 0.2
22/07:00am 2.1 0.4 2.1 100 0.0 CALM 0 0 0 0 1018.0 1018.0 0.2
22/06:30am 2.6 1.0 2.6 100 0.0 CALM 0 0 0 0 1017.7 1017.7 0.2
22/06:00am 2.6 1.0 2.5 99 0.0 CALM 0 0 0 0 1017.7 1017.7 0.2
22/05:30am 2.4 0.8 2.3 99 0.0 CALM 0 0 0 0 1017.5 1017.5 0.2
22/05:00am 2.4 0.8 2.3 99 0.0 CALM 0 0 0 0 1017.4 1017.4 0.2
22/04:30am 3.2 1.7 3.1 99 0.0 CALM 0 0 0 0 1017.0 1017.0 0.2
22/04:00am 1.7 0.0 1.6 99 0.0 CALM 0 0 0 0 1016.7 1016.7 0.2
22/03:30am 2.3 0.7 2.2 99 0.0 CALM 0 0 0 0 1016.5 1016.5 0.2
22/03:00am 2.8 1.2 2.7 99 0.0 CALM 0 0 0 0 1016.4 1016.4 0.2
22/02:30am 3.5 2.1 3.4 99 0.0 CALM 0 0 0 0 1016.4 1016.4 0.2
22/02:00am 3.6 2.2 3.5 99 0.0 CALM 0 0 0 0 1016.7 1016.7 0.2
22/01:30am 3.6 2.1 3.2 97 0.2 CALM 0 0 0 0 1016.8 1016.8 0.2
22/01:00am 5.0 3.7 4.0 93 0.4 CALM 0 0 0 0 1016.7 1016.7 0.2
22/12:30am 6.3 5.1 4.8 90 0.7 CALM 0 0 0 0 1016.6 1016.6 0.2
22/12:00am 7.2 6.1 5.3 88 0.8 CALM 0 0 0 0 1016.6 1016.6 0.2
 
Date/Time
EST
Temp
°C
App
Temp
°C
Dew
Point
°C
Rel
Hum
%
Delta-T
°C
Wind Press
QNH
hPa
Press
MSL
hPa
Rain since
9am
mm
Dir  Spd
km/h
Gust
km/h
Spd
kts
Gust
kts
21/11:30pm 6.9 4.7 5.2 89 0.7 NW 6 9 3 5 1016.7 1016.7 0.2
21/11:00pm 6.9 4.6 5.5 91 0.6 NNW 7 9 4 5 1016.6 1016.6 0.2
21/10:30pm 6.9 3.7 5.1 88 0.8 NNW 11 13 6 7 1016.6 1016.6 0.2
21/10:00pm 8.0 4.6 5.8 86 1.0 N 13 17 7 9 1016.4 1016.4 0.2
21/09:30pm 7.2 5.0 6.0 92 0.5 N 7 9 4 5 1016.4 1016.4 0.2
21/09:00pm 7.5 4.8 5.8 89 0.8 N 9 11 5 6 1016.0 1016.0 0.2

Latest Capital City Observations: Canberra | Sydney | Melbourne | Brisbane | Adelaide | Perth | Hobart | Darwin

Other Formats:

Comma delimited format used in spreadsheet applications
http://www.bom.gov.au/fwo/IDV60901/IDV60901.94854.axf

JavaScript Object Notation format (JSON) in row-major order
http://www.bom.gov.au/fwo/IDV60901/IDV60901.94854.json